Terminal Aerodrome Forecast
Issued by NWS Charleston, WV

Current Version | Previous Version | Text Only | Print | Product List | Glossary Off
Versions: 1 2 3 4 5 6 7 8 9 10 11 12 13 14 15 16 17 18 19 20 21

518
FTUS41 KRLX 202330
TAFPKB
TAF
KPKB 202330Z 2100/2124 21005KT P6SM BKN070
      TEMPO 2103/2105 3SM SHRA BR BKN025
     FM210600 22006KT P6SM VCSH OVC035
     FM210800 23006KT P6SM VCTS OVC015CB
     FM211200 25005KT P6SM SCT250
     FM211600 27009KT P6SM SCT250=

USA.gov is the U.S. government's official web portal to all federal, state and local government web resources and services.